Time;durP1;ratioP1;P1;durP2;ratioP2;P2;SDS_P1;SDS_P2;PMS_P1;PMS_P2;Temp;Humidity;BMP_temperature;BMP_pressure;BME280_temperature;BME280_humidity;BME280_pressure;Samples;Min_cycle;Max_cycle;Signal;HPM_P1;HPM_P2
2022/12/26 00:01:35;;;;;;;17.25;8.65;;;;;;;15.33;56.22;100433.63;4492896;31;33742;-75
2022/12/26 00:04:03;;;;;;;17.05;9.05;;;;;;;16.05;54.17;100424.78;4488056;31;33970;-75
2022/12/26 00:06:31;;;;;;;14.45;7.75;;;;;;;14.50;58.80;100443.56;4490496;31;34432;-75
2022/12/26 00:09:00;;;;;;;13.55;7.85;;;;;;;15.41;56.11;100440.00;4493645;31;33468;-75
2022/12/26 00:11:28;;;;;;;15.35;7.32;;;;;;;15.87;54.63;100430.31;4485418;31;33762;-75
2022/12/26 00:13:58;;;;;;;13.43;7.32;;;;;;;15.41;55.58;100432.19;4491796;31;34468;-75
2022/12/26 00:16:26;;;;;;;16.30;7.57;;;;;;;16.39;52.49;100426.75;4485723;31;33532;-75
2022/12/26 00:18:54;;;;;;;15.13;7.62;;;;;;;16.17;53.90;100427.81;4491989;31;33673;-75
2022/12/26 00:21:24;;;;;;;15.73;7.50;;;;;;;15.35;55.64;100439.81;4482501;31;33272;-75
2022/12/26 00:23:53;;;;;;;16.12;7.95;;;;;;;15.11;56.58;100443.31;4460848;32;33639;-75
2022/12/26 00:26:23;;;;;;;15.80;7.22;;;;;;;15.97;54.41;100429.75;4471647;31;33712;-75
2022/12/26 00:28:52;;;;;;;11.75;7.10;;;;;;;15.58;54.94;100424.06;4481674;31;33156;-76
2022/12/26 00:31:25;;;;;;;13.75;7.22;;;;;;;15.84;54.36;100420.66;4478254;31;33327;-75
2022/12/26 00:33:53;;;;;;;14.20;7.25;;;;;;;15.41;55.55;100426.97;4489002;31;34503;-75
2022/12/26 00:36:23;;;;;;;13.98;7.03;;;;;;;15.27;56.46;100428.22;4487435;31;33930;-75
2022/12/26 00:38:51;;;;;;;13.68;6.87;;;;;;;15.02;57.30;100424.69;4489031;31;33965;-75
2022/12/26 00:41:20;;;;;;;16.12;8.25;;;;;;;15.07;56.87;100428.38;4497497;31;33659;-75
2022/12/26 00:43:47;;;;;;;16.23;7.57;;;;;;;15.31;56.16;100432.69;4495637;31;34655;-75
2022/12/26 00:46:16;;;;;;;16.12;7.68;;;;;;;15.39;55.47;100431.25;4494078;31;33625;-75
2022/12/26 00:48:44;;;;;;;16.67;7.80;;;;;;;16.15;53.33;100429.50;4497824;31;32977;-75
2022/12/26 00:51:12;;;;;;;15.77;8.10;;;;;;;16.10;53.29;100433.69;4494126;31;33878;-75
2022/12/26 00:53:39;;;;;;;15.18;8.15;;;;;;;15.76;53.97;100429.97;4485870;31;33936;-75
2022/12/26 00:56:07;;;;;;;16.87;9.30;;;;;;;15.27;55.62;100443.87;4489256;31;33838;-75
2022/12/26 00:58:36;;;;;;;17.55;8.85;;;;;;;15.16;55.46;100442.59;4490977;31;33899;-75
2022/12/26 01:01:09;;;;;;;18.25;9.75;;;;;;;14.44;57.40;100438.13;4482434;31;32041;-75
2022/12/26 01:03:38;;;;;;;19.98;10.90;;;;;;;14.05;58.88;100443.50;4481489;31;33897;-75
2022/12/26 01:06:06;;;;;;;17.23;9.63;;;;;;;15.44;54.74;100437.53;4488873;31;33409;-75
2022/12/26 01:08:33;;;;;;;18.33;10.00;;;;;;;15.62;54.57;100428.56;4486335;31;33615;-74
2022/12/26 01:11:06;;;;;;;17.08;9.93;;;;;;;14.06;58.80;100429.63;4491283;31;34587;-75
2022/12/26 01:13:34;;;;;;;16.33;9.27;;;;;;;13.73;60.21;100419.59;4481839;31;34428;-75
2022/12/26 01:16:02;;;;;;;18.58;9.88;;;;;;;14.40;58.22;100423.19;4493049;31;34453;-75
2022/12/26 01:18:30;;;;;;;18.30;9.43;;;;;;;15.23;55.37;100428.94;4496221;31;33384;-75
2022/12/26 01:21:00;;;;;;;19.98;10.18;;;;;;;13.73;59.68;100425.72;4483130;32;33680;-75
2022/12/26 01:23:28;;;;;;;19.25;9.77;;;;;;;14.30;58.66;100429.75;4488819;31;33236;-75
2022/12/26 01:25:55;;;;;;;20.83;9.80;;;;;;;14.79;56.49;100423.84;4492532;31;33813;-75
2022/12/26 01:28:43;;;;;;;20.80;10.07;;;;;;;14.68;57.20;100419.94;4491134;31;33562;-75
2022/12/26 01:31:10;;;;;;;19.02;9.65;;;;;;;15.60;54.52;100415.44;4492287;31;33060;-75
2022/12/26 01:33:38;;;;;;;21.58;10.95;;;;;;;14.04;59.20;100410.47;4491404;31;33636;-75
2022/12/26 01:36:06;;;;;;;20.08;9.95;;;;;;;13.04;62.23;100414.91;4476519;31;32551;-75
2022/12/26 01:38:34;;;;;;;18.55;10.65;;;;;;;14.58;58.12;100410.88;4484601;31;33605;-75
2022/12/26 01:41:18;;;;;;;21.40;10.85;;;;;;;13.89;58.91;100401.19;4488039;31;35044;-75
2022/12/26 01:43:53;;;;;;;18.80;10.10;;;;;;;13.88;59.55;100403.75;4481267;31;33866;-75
2022/12/26 01:46:43;;;;;;;23.35;10.82;;;;;;;14.39;57.87;100408.34;4494117;31;33929;-75
2022/12/26 01:49:29;;;;;;;19.08;11.30;;;;;;;14.30;57.55;100399.34;4484532;31;33935;-75
2022/12/26 01:51:57;;;;;;;;;;;;;;;13.98;59.12;100385.03;4493241;31;33953;-75
2022/12/26 01:54:26;;;;;;;22.20;10.25;;;;;;;13.68;59.34;100402.94;4486321;31;33856;-75
2022/12/26 01:57:09;;;;;;;21.65;11.52;;;;;;;13.55;60.67;100394.56;4482901;32;33774;-75
2022/12/26 01:59:39;;;;;;;18.60;10.98;;;;;;;13.22;61.26;100387.91;4478407;31;34426;-75
2022/12/26 02:02:07;;;;;;;19.60;10.35;;;;;;;13.34;61.09;100383.25;4493652;31;33815;-75
2022/12/26 02:07:27;;;;;;;22.30;12.02;;;;;;;13.38;61.02;100385.16;4475663;31;33656;-75
2022/12/26 02:09:54;;;;;;;19.70;11.05;;;;;;;13.35;61.10;100387.66;4497058;31;33508;-75
2022/12/26 02:12:29;;;;;;;19.58;11.32;;;;;;;13.48;60.37;100391.66;4496883;31;34817;-75
2022/12/26 02:15:06;;;;;;;23.48;12.50;;;;;;;13.29;60.98;100382.13;4485026;31;33292;-75
2022/12/26 02:17:35;;;;;;;21.12;11.55;;;;;;;12.65;63.08;100375.87;4498073;31;34526;-75
2022/12/26 02:20:15;;;;;;;22.20;11.82;;;;;;;12.94;62.27;100386.69;4483476;31;33676;-74
2022/12/26 02:22:55;;;;;;;24.02;13.70;;;;;;;12.46;63.86;100381.03;4482345;31;33724;-75
2022/12/26 02:25:42;;;;;;;21.85;12.63;;;;;;;12.33;64.73;100380.47;4493051;31;34027;-75
2022/12/26 02:28:38;;;;;;;22.48;13.07;;;;;;;12.98;62.38;100388.63;4473062;31;32990;-75
2022/12/26 02:31:24;;;;;;;25.40;12.35;;;;;;;13.60;60.08;100388.69;4469022;31;31993;-75
2022/12/26 02:33:55;;;;;;;19.83;12.93;;;;;;;13.39;60.30;100375.69;4474906;31;33658;-75
2022/12/26 02:36:27;;;;;;;26.17;14.07;;;;;;;12.27;64.34;100375.00;4479332;31;34765;-75
2022/12/26 02:39:00;;;;;;;23.33;13.00;;;;;;;12.51;63.60;100372.63;4469826;31;34424;-75
2022/12/26 02:41:46;;;;;;;27.50;14.52;;;;;;;12.53;63.51;100372.72;4472453;31;32086;-75
2022/12/26 02:47:37;;;;;;;25.70;14.57;;;;;;;12.55;64.03;100353.75;4480633;31;33537;-75
2022/12/26 03:13:44;;;;;;;25.00;14.38;;;;;;;13.98;58.00;100337.28;4484091;32;33905;-75
2022/12/26 03:19:02;;;;;;;23.17;14.80;;;;;;;13.00;61.35;100350.56;4499731;31;33639;-75
2022/12/26 03:21:35;;;;;;;24.77;15.50;;;;;;;14.21;57.36;100341.66;4489825;31;33939;-75
2022/12/26 03:24:03;;;;;;;24.83;14.25;;;;;;;14.13;57.41;100343.97;4491771;31;33907;-75
2022/12/26 03:26:41;;;;;;;23.23;14.70;;;;;;;13.98;57.73;100343.38;4475625;31;33577;-75
2022/12/26 03:31:58;;;;;;;23.08;14.35;;;;;;;13.71;58.51;100348.38;4496190;31;34451;-75
2022/12/26 03:34:25;;;;;;;25.00;13.82;;;;;;;12.86;61.58;100351.66;4490528;31;33943;-75
2022/12/26 03:37:01;;;;;;;23.80;13.62;;;;;;;13.76;58.92;100352.06;4491932;31;33530;-75
2022/12/26 04:44:11;;;;;;;26.45;15.32;;;;;;;13.80;55.08;100380.00;4462583;32;34318;-75
2022/12/26 04:46:42;;;;;;;22.10;13.65;;;;;;;13.33;55.85;100379.78;4461353;32;34330;-75
2022/12/26 04:52:00;;;;;;;24.45;15.77;;;;;;;13.45;55.24;100371.59;4489622;31;33729;-75
2022/12/26 04:54:27;;;;;;;25.17;15.07;;;;;;;13.35;55.84;100356.44;4491690;31;33888;-75
2022/12/26 04:56:55;;;;;;;26.83;14.52;;;;;;;13.66;55.12;100366.41;4493760;31;33790;-75
2022/12/26 04:59:23;;;;;;;21.50;14.32;;;;;;;13.79;54.61;100369.50;4490777;31;34144;-75
2022/12/26 05:10:17;;;;;;;26.20;14.90;;;;;;;12.68;57.53;100367.31;4488463;31;33885;-75
2022/12/26 05:12:44;;;;;;;25.37;14.07;;;;;;;13.48;55.50;100371.75;4483433;32;33819;-75
2022/12/26 05:15:13;;;;;;;25.65;15.30;;;;;;;13.63;55.14;100362.78;4493357;31;34394;-75
2022/12/26 05:28:40;;;;;;;27.05;14.68;;;;;;;13.40;54.81;100367.03;4473638;31;33046;-75
2022/12/26 05:31:14;;;;;;;23.02;14.38;;;;;;;13.62;54.44;100374.00;4488559;31;34619;-75
2022/12/26 05:36:47;;;;;;;25.98;15.52;;;;;;;13.27;55.33;100365.56;4488054;31;34115;-75
2022/12/26 05:39:14;;;;;;;27.33;16.20;;;;;;;13.37;55.10;100362.59;4480273;31;33744;-75
2022/12/26 05:41:42;;;;;;;27.67;16.00;;;;;;;13.55;54.67;100367.66;4498037;31;33854;-75
2022/12/26 05:44:10;;;;;;;28.15;16.42;;;;;;;12.55;57.69;100368.47;4495985;31;33414;-75
2022/12/26 05:46:38;;;;;;;25.45;14.38;;;;;;;13.35;55.36;100364.25;4489944;31;33911;-75
2022/12/26 05:49:06;;;;;;;23.20;13.88;;;;;;;14.21;52.32;100346.00;4490808;31;33671;-75
2022/12/26 05:51:34;;;;;;;23.35;13.25;;;;;;;13.78;53.82;100355.59;4497785;31;33946;-75
2022/12/26 05:54:02;;;;;;;24.77;14.15;;;;;;;13.54;54.34;100360.66;4493310;31;33550;-76
2022/12/26 05:56:30;;;;;;;26.60;15.25;;;;;;;13.10;55.69;100368.34;4488560;31;33462;-75
2022/12/26 05:58:59;;;;;;;25.65;13.75;;;;;;;12.98;55.91;100370.41;4487945;31;34373;-75
2022/12/26 06:01:27;;;;;;;25.70;14.90;;;;;;;13.67;53.91;100373.38;4494941;31;34556;-75
2022/12/26 06:03:57;;;;;;;27.58;14.75;;;;;;;13.82;52.99;100365.31;4494750;31;34221;-75
2022/12/26 06:06:25;;;;;;;25.83;15.30;;;;;;;13.87;53.00;100363.78;4486493;31;33687;-75
2022/12/26 06:08:54;;;;;;;26.27;15.45;;;;;;;13.64;53.78;100360.25;4490932;31;33373;-75
2022/12/26 06:11:24;;;;;;;25.50;14.20;;;;;;;13.60;53.93;100373.06;4498374;31;33867;-75
2022/12/26 06:13:52;;;;;;;24.75;14.25;;;;;;;13.48;54.21;100370.84;4489880;31;33597;-75
2022/12/26 06:16:19;;;;;;;23.80;13.98;;;;;;;13.18;54.78;100369.56;4496876;31;34321;-75
2022/12/26 06:18:48;;;;;;;27.02;14.20;;;;;;;11.92;57.48;100360.34;4490603;31;33216;-75
2022/12/26 06:21:17;;;;;;;26.25;15.73;;;;;;;12.38;56.19;100362.50;4494472;31;33912;-75
2022/12/26 06:23:46;;;;;;;29.30;16.90;;;;;;;12.53;55.69;100357.12;4491684;31;33906;-75
2022/12/26 06:26:15;;;;;;;25.73;15.82;;;;;;;13.06;54.86;100356.03;4489108;31;34031;-75
2022/12/26 06:28:42;;;;;;;28.12;14.90;;;;;;;12.17;57.12;100357.22;4486263;31;33854;-75
2022/12/26 06:31:19;;;;;;;23.52;14.15;;;;;;;12.38;56.49;100355.59;4494862;31;33818;-75
2022/12/26 06:33:48;;;;;;;24.27;14.75;;;;;;;13.32;53.63;100348.50;4494577;31;33791;-75
2022/12/26 06:36:18;;;;;;;23.30;14.25;;;;;;;13.73;52.07;100351.91;4492676;31;34665;-75
2022/12/26 06:38:46;;;;;;;24.20;13.55;;;;;;;14.18;50.63;100357.19;4486620;31;33607;-75
2022/12/26 06:41:16;;;;;;;21.90;12.25;;;;;;;13.89;51.07;100359.53;4498269;31;34653;-75
2022/12/26 06:43:46;;;;;;;26.00;14.70;;;;;;;14.03;50.63;100352.28;4488213;31;33116;-75
2022/12/26 06:46:16;;;;;;;22.08;13.82;;;;;;;13.88;51.20;100349.94;4492151;31;33886;-75
2022/12/26 06:48:44;;;;;;;25.88;14.63;;;;;;;13.24;53.06;100355.06;4496115;31;33565;-75
2022/12/26 06:51:17;;;;;;;25.67;14.25;;;;;;;12.37;55.14;100356.41;4485354;32;34661;-75
2022/12/26 06:53:45;;;;;;;28.87;13.40;;;;;;;12.79;54.09;100360.91;4496734;31;34040;-75
2022/12/26 06:56:18;;;;;;;23.38;14.07;;;;;;;12.12;55.38;100358.69;4485425;31;33684;-75
2022/12/26 06:58:46;;;;;;;25.58;14.80;;;;;;;11.05;58.80;100360.31;4491299;31;33198;-75
2022/12/26 07:01:16;;;;;;;26.02;15.88;;;;;;;10.03;62.37;100364.31;4485651;32;33858;-75
2022/12/26 07:03:44;;;;;;;28.62;17.75;;;;;;;10.08;62.72;100356.78;4481406;31;217987;-75
2022/12/26 07:06:22;;;;;;;26.75;16.35;;;;;;;10.99;60.22;100366.06;4484573;32;33592;-75
2022/12/26 07:08:50;;;;;;;26.77;15.73;;;;;;;12.68;55.15;100357.81;4484473;31;32960;-75
2022/12/26 07:11:21;;;;;;;23.98;14.38;;;;;;;14.48;49.53;100361.81;4483631;31;33848;-75
2022/12/26 07:13:48;;;;;;;28.38;14.52;;;;;;;13.39;52.30;100367.88;4489358;31;34947;-75
2022/12/26 07:16:16;;;;;;;43.90;15.20;;;;;;;14.01;50.15;100373.88;4487383;31;33413;-75
2022/12/26 07:18:44;;;;;;;28.95;14.65;;;;;;;12.10;54.98;100375.91;4484607;31;33518;-75
2022/12/26 07:21:13;;;;;;;37.67;15.98;;;;;;;12.11;55.79;100382.84;4485837;31;33550;-75
2022/12/26 07:23:41;;;;;;;67.35;18.60;;;;;;;10.10;62.48;100394.91;4488711;31;33861;-74
2022/12/26 07:26:09;;;;;;;50.63;16.50;;;;;;;10.75;61.39;100395.88;4480969;31;34025;-74
2022/12/26 07:28:37;;;;;;;65.82;17.05;;;;;;;10.58;62.03;100393.25;4490999;31;33503;-75
2022/12/26 07:31:05;;;;;;;59.25;15.88;;;;;;;10.73;61.70;100398.38;4491559;31;34031;-75
2022/12/26 07:33:33;;;;;;;48.03;16.62;;;;;;;9.33;67.30;100402.50;4488254;31;33426;-74
2022/12/26 07:36:05;;;;;;;73.18;18.65;;;;;;;10.37;64.20;100399.84;4490268;31;34502;-75
2022/12/26 07:38:33;;;;;;;78.40;16.27;;;;;;;8.61;70.68;100401.62;4483832;32;33339;-75
2022/12/26 07:41:56;;;;;;;51.08;15.88;;;;;;;9.60;67.81;100398.97;4487327;31;32529;-75
2022/12/26 07:43:51;;;;;;;45.53;16.17;;;;;;;9.92;67.23;100407.69;4490490;31;33824;-75
2022/12/26 07:46:18;;;;;;;51.55;15.95;;;;;;;9.50;69.12;100406.97;4485951;31;33854;-75
2022/12/26 07:48:46;;;;;;;64.70;15.13;;;;;;;10.37;66.86;100399.84;4488827;31;33231;-75
2022/12/26 07:51:14;;;;;;;74.68;16.80;;;;;;;11.12;63.52;100390.91;4490893;31;33826;-75
2022/12/26 07:53:42;;;;;;;83.03;18.37;;;;;;;10.10;66.81;100401.75;4489907;31;33975;-75
2022/12/26 07:56:09;;;;;;;119.62;20.33;;;;;;;9.77;67.96;100411.97;4483880;31;33930;-74
2022/12/26 07:58:37;;;;;;;49.50;18.35;;;;;;;10.43;65.59;100408.88;4483828;31;33156;-74
2022/12/26 08:01:05;;;;;;;77.25;18.52;;;;;;;10.21;67.12;100416.19;4485464;31;34291;-75
2022/12/26 08:03:33;;;;;;;77.22;19.40;;;;;;;9.35;69.46;100421.59;4486569;31;34452;-75
2022/12/26 08:06:01;;;;;;;31.10;16.62;;;;;;;10.82;65.59;100423.91;4486120;31;34504;-75
2022/12/26 08:08:29;;;;;;;62.35;19.48;;;;;;;12.72;58.66;100406.50;4484907;31;33799;-74
2022/12/26 08:11:01;;;;;;;42.85;18.10;;;;;;;11.52;61.78;100411.13;4488854;31;32674;-74
2022/12/26 08:13:29;;;;;;;31.35;18.37;;;;;;;11.29;63.56;100411.66;4481618;31;34666;-74
2022/12/26 08:15:57;;;;;;;31.25;18.12;;;;;;;12.37;59.46;100403.19;4490000;31;33801;-74
2022/12/26 08:18:25;;;;;;;30.20;17.10;;;;;;;12.71;59.12;100404.75;4486318;31;33281;-74
2022/12/26 08:20:52;;;;;;;29.37;15.07;;;;;;;13.81;55.61;100407.81;4493974;31;33901;-74
2022/12/26 08:23:20;;;;;;;28.52;14.82;;;;;;;14.19;53.59;100418.00;4486936;31;34349;-74
2022/12/26 08:25:47;;;;;;;21.40;13.90;;;;;;;13.98;54.05;100412.81;4492475;31;34169;-74
2022/12/26 08:28:15;;;;;;;28.67;14.43;;;;;;;14.56;52.05;100417.72;4495631;31;33212;-74
2022/12/26 08:30:43;;;;;;;23.38;14.27;;;;;;;12.76;57.11;100418.81;4493031;31;34598;-74
2022/12/26 08:33:10;;;;;;;26.48;14.52;;;;;;;13.74;54.41;100417.06;4487017;31;33334;-74
2022/12/26 08:35:39;;;;;;;34.05;15.65;;;;;;;12.89;56.79;100417.69;4495169;31;34644;-75
2022/12/26 08:38:06;;;;;;;20.02;12.85;;;;;;;11.84;60.54;100422.22;4486680;31;33453;-75
2022/12/26 08:40:34;;;;;;;28.20;15.25;;;;;;;12.79;57.75;100424.19;4496273;31;33946;-75
2022/12/26 08:43:11;;;;;;;24.90;15.10;;;;;;;13.00;57.19;100423.37;4491756;31;33662;-74
2022/12/26 08:46:05;;;;;;;26.30;15.80;;;;;;;12.39;59.34;100426.63;4487848;31;33766;-75
2022/12/26 08:48:33;;;;;;;26.75;16.37;;;;;;;12.66;59.28;100428.75;4493176;31;33300;-75
2022/12/26 08:51:04;;;;;;;27.62;17.83;;;;;;;12.30;60.47;100426.19;4499521;31;34056;-75
2022/12/26 08:53:32;;;;;;;25.95;16.58;;;;;;;12.18;61.30;100421.31;4488823;31;33415;-74
2022/12/26 08:55:59;;;;;;;27.23;16.92;;;;;;;13.34;57.86;100419.69;4483761;31;32718;-75
2022/12/26 08:58:28;;;;;;;27.75;18.33;;;;;;;13.82;56.74;100425.22;4488158;31;34466;-75
2022/12/26 09:01:08;;;;;;;29.83;18.85;;;;;;;14.32;55.15;100423.75;4489542;31;33979;-76
2022/12/26 09:03:36;;;;;;;29.77;18.08;;;;;;;14.92;53.62;100417.38;4482569;31;33657;-76
2022/12/26 09:06:04;;;;;;;29.55;17.55;;;;;;;14.47;54.35;100422.59;4484096;31;33361;-75
2022/12/26 09:08:34;;;;;;;30.08;18.10;;;;;;;14.70;54.24;100420.91;4490504;31;34051;-75
2022/12/26 09:11:10;;;;;;;30.67;18.30;;;;;;;14.64;54.85;100428.47;4493664;31;33301;-77
2022/12/26 09:13:38;;;;;;;32.00;18.55;;;;;;;14.78;55.04;100434.25;4492512;31;33736;-75
2022/12/26 09:16:16;;;;;;;32.88;18.58;;;;;;;14.98;54.42;100433.25;4495030;31;33702;-74
2022/12/26 09:18:44;;;;;;;30.98;18.73;;;;;;;14.13;56.48;100432.56;4488053;31;34188;-75
2022/12/26 09:21:14;;;;;;;36.83;17.52;;;;;;;14.24;56.98;100440.81;4485417;31;33819;-75
2022/12/26 09:23:42;;;;;;;32.10;17.80;;;;;;;14.12;57.35;100433.41;4487991;31;34400;-75
2022/12/26 09:26:16;;;;;;;30.23;17.77;;;;;;;14.72;55.85;100446.22;4490667;31;34600;-75
2022/12/26 09:28:45;;;;;;;27.58;17.98;;;;;;;14.52;55.95;100436.69;4484285;31;33444;-75
2022/12/26 09:31:16;;;;;;;27.77;16.27;;;;;;;14.82;55.65;100439.63;4483006;31;32845;-75
2022/12/26 09:33:45;;;;;;;29.70;17.42;;;;;;;15.47;53.64;100444.56;4483280;31;33950;-75
2022/12/26 09:36:15;;;;;;;27.27;16.52;;;;;;;15.84;52.90;100441.56;4484222;31;33931;-75
2022/12/26 09:38:44;;;;;;;31.17;18.73;;;;;;;16.09;52.12;100431.91;4490272;31;32576;-75
2022/12/26 09:41:30;;;;;;;29.63;18.30;;;;;;;15.86;52.93;100434.66;4488583;31;33878;-74
2022/12/26 09:44:08;;;;;;;27.05;17.75;;;;;;;14.78;56.03;100434.25;4483671;31;34273;-75
2022/12/26 09:47:05;;;;;;;29.15;17.25;;;;;;;15.33;54.96;100431.03;4483751;31;34207;-75
2022/12/26 09:49:36;;;;;;;30.62;18.27;;;;;;;16.47;51.79;100434.84;4478403;32;33791;-74
2022/12/26 09:52:47;;;;;;;27.23;17.35;;;;;;;16.29;52.24;100428.19;4482805;32;33928;-74
2022/12/26 09:55:17;;;;;;;29.02;17.83;;;;;;;15.24;55.22;100441.13;4458882;31;32408;-75
2022/12/26 09:57:46;;;;;;;32.50;17.85;;;;;;;15.05;56.29;100432.66;4488425;31;33061;-74
2022/12/26 10:00:19;;;;;;;32.90;19.45;;;;;;;14.97;57.13;100433.19;4483718;32;33833;-74
2022/12/26 10:02:52;;;;;;;37.03;20.67;;;;;;;14.36;59.22;100433.47;4483599;32;33751;-74
2022/12/26 10:05:22;;;;;;;36.28;22.23;;;;;;;13.85;60.53;100432.25;4482493;32;33524;-74
2022/12/26 10:07:56;;;;;;;34.20;20.80;;;;;;;14.02;60.63;100422.53;4477717;32;32994;-74
2022/12/26 10:10:44;;;;;;;32.55;20.33;;;;;;;14.38;59.60;100424.84;4482942;31;33261;-74
2022/12/26 10:13:28;;;;;;;33.35;20.58;;;;;;;14.74;58.68;100426.28;4460993;32;33612;-75
2022/12/26 10:16:17;;;;;;;32.60;20.42;;;;;;;14.24;60.16;100419.97;4484628;31;33834;-75
2022/12/26 10:18:52;;;;;;;32.30;18.98;;;;;;;15.53;56.66;100418.69;4479250;31;33798;-74
2022/12/26 10:21:19;;;;;;;33.72;20.08;;;;;;;16.44;53.10;100416.47;4484040;31;32996;-75
2022/12/26 10:23:51;;;;;;;30.65;18.40;;;;;;;16.27;53.94;100406.34;4490378;31;34746;-75
2022/12/26 10:26:32;;;;;;;33.50;18.62;;;;;;;16.69;53.26;100405.91;4480633;31;34789;-75
2022/12/26 10:29:09;;;;;;;31.73;18.45;;;;;;;16.39;53.69;100407.59;4480129;31;32418;-75
2022/12/26 10:31:41;;;;;;;26.30;16.15;;;;;;;16.60;53.15;100400.38;4489698;31;34208;-75
2022/12/26 10:34:28;;;;;;;23.73;15.43;;;;;;;17.31;51.25;100384.09;4475360;31;32755;-75
2022/12/26 10:37:00;;;;;;;28.90;16.50;;;;;;;16.96;52.52;100384.03;4477823;32;33547;-75
2022/12/26 10:39:34;;;;;;;26.08;16.08;;;;;;;17.38;51.45;100383.41;4489381;31;33896;-75
2022/12/26 10:42:09;;;;;;;24.50;15.68;;;;;;;17.09;52.24;100386.16;4484676;31;34375;-75
2022/12/26 10:44:39;;;;;;;28.45;16.67;;;;;;;16.30;53.47;100379.41;4470401;32;33339;-79
2022/12/26 10:47:14;;;;;;;25.60;16.08;;;;;;;15.42;55.94;100381.75;4487932;31;33751;-75
2022/12/26 10:49:44;;;;;;;27.23;17.00;;;;;;;15.83;55.75;100379.69;4487787;31;34138;-75
2022/12/26 10:52:13;;;;;;;28.15;16.73;;;;;;;16.76;53.33;100364.22;4488086;31;33766;-75
2022/12/26 10:54:41;;;;;;;29.23;17.95;;;;;;;17.05;52.28;100368.56;4487456;31;34705;-75
2022/12/26 10:57:10;;;;;;;33.67;22.08;;;;;;;14.86;59.04;100365.00;4494414;31;34391;-75
2022/12/26 10:59:41;;;;;;;29.98;18.98;;;;;;;17.32;51.61;100366.66;4481946;31;34429;-75
2022/12/26 11:02:30;;;;;;;27.77;18.75;;;;;;;16.73;53.51;100348.41;4486454;31;33512;-75
2022/12/26 11:05:08;;;;;;;27.00;16.40;;;;;;;17.03;53.00;100348.44;4480267;31;33627;-75
2022/12/26 11:07:51;;;;;;;35.92;22.00;;;;;;;17.39;51.92;100331.94;4484264;31;34417;-75
2022/12/26 11:10:21;;;;;;;29.48;18.77;;;;;;;16.95;53.11;100335.13;4467052;32;34871;-76
2022/12/26 11:13:00;;;;;;;29.70;17.20;;;;;;;16.81;53.57;100331.22;4478592;31;33495;-74
2022/12/26 11:15:39;;;;;;;34.60;19.83;;;;;;;17.34;52.32;100323.94;4471944;31;34914;-75
2022/12/26 11:18:36;;;;;;;27.70;18.08;;;;;;;17.16;53.01;100320.88;4480175;31;34059;-75
2022/12/26 11:21:16;;;;;;;27.85;17.85;;;;;;;17.02;53.24;100318.75;4485366;31;32292;-75
2022/12/26 11:23:50;;;;;;;31.35;17.85;;;;;;;17.39;51.89;100310.97;4483508;32;34062;-75
2022/12/26 11:26:20;;;;;;;26.87;16.05;;;;;;;17.53;51.67;100319.19;4487413;31;33350;-75
2022/12/26 11:29:11;;;;;;;27.62;17.75;;;;;;;17.65;51.32;100314.22;4482938;31;34099;-75
2022/12/26 11:31:58;;;;;;;26.55;16.40;;;;;;;17.25;52.39;100313.25;4483640;31;33992;-74
2022/12/26 11:34:33;;;;;;;27.55;16.83;;;;;;;17.62;51.59;100319.41;4483230;31;33832;-74
2022/12/26 11:37:02;;;;;;;28.75;17.30;;;;;;;17.45;51.33;100317.25;4483222;31;33911;-74
2022/12/26 11:39:34;;;;;;;27.92;17.58;;;;;;;17.99;50.83;100325.56;4484297;31;33465;-75
2022/12/26 11:42:13;;;;;;;30.37;17.30;;;;;;;18.19;49.98;100333.88;4485813;31;34308;-74
2022/12/26 11:44:44;;;;;;;35.42;19.95;;;;;;;17.38;51.62;100322.28;4472051;31;33301;-75
2022/12/26 11:47:14;;;;;;;36.85;20.12;;;;;;;17.40;52.11;100308.41;4479824;31;33805;-75
2022/12/26 11:50:02;;;;;;;37.92;22.25;;;;;;;17.62;51.29;100319.41;4486040;31;34288;-75
2022/12/26 11:52:38;;;;;;;39.53;21.42;;;;;;;17.93;50.92;100314.94;4484383;31;33674;-74
2022/12/26 11:55:21;;;;;;;41.63;23.20;;;;;;;17.50;51.91;100320.00;4484299;31;34085;-74
2022/12/26 11:58:08;;;;;;;45.60;24.73;;;;;;;17.81;51.27;100321.63;4487211;31;32247;-75
2022/12/26 12:00:38;;;;;;;43.10;23.60;;;;;;;17.16;54.45;100318.25;4486143;31;34785;-76
2022/12/26 12:03:29;;;;;;;43.63;21.55;;;;;;;17.86;51.46;100314.78;4471944;31;33041;-75
2022/12/26 12:06:19;;;;;;;47.03;25.35;;;;;;;17.43;52.82;100313.72;4472000;31;33590;-76
2022/12/26 12:09:11;;;;;;;43.75;23.73;;;;;;;17.41;52.16;100310.16;4485699;31;33838;-77
2022/12/26 12:12:16;;;;;;;41.95;23.08;;;;;;;17.60;52.31;100318.50;4481920;31;33066;-76
2022/12/26 12:14:56;;;;;;;42.70;21.80;;;;;;;18.03;50.60;100319.53;4485083;31;33870;-75
2022/12/26 12:17:27;;;;;;;40.97;22.25;;;;;;;17.60;51.57;100305.41;4486106;31;34081;-76
2022/12/26 12:20:07;;;;;;;45.33;26.48;;;;;;;17.55;51.54;100301.78;4485138;31;33561;-75
2022/12/26 12:22:47;;;;;;;42.42;24.60;;;;;;;17.45;51.98;100304.16;4482976;31;33811;-76
2022/12/26 12:25:27;;;;;;;46.47;24.95;;;;;;;17.75;50.96;100304.84;4470747;31;34643;-75
2022/12/26 12:27:59;;;;;;;42.62;23.15;;;;;;;17.68;50.89;100309.97;4485189;31;33087;-75
2022/12/26 12:30:52;;;;;;;47.45;24.40;;;;;;;18.06;50.21;100306.50;4479412;31;34153;-74
2022/12/26 12:33:29;;;;;;;42.17;23.02;;;;;;;17.83;50.52;100298.97;4484573;31;34330;-75
2022/12/26 12:36:35;;;;;;;44.53;23.70;;;;;;;17.91;50.87;100303.53;4481774;31;33920;-75
2022/12/26 12:39:12;;;;;;;48.92;24.20;;;;;;;18.09;50.18;100311.81;4479703;31;31958;-75
2022/12/26 12:41:52;;;;;;;44.97;22.98;;;;;;;18.19;49.53;100311.16;4471054;31;32599;-76
2022/12/26 12:44:30;;;;;;;41.53;23.65;;;;;;;18.22;51.65;100305.97;4488078;31;33895;-74
2022/12/26 12:47:09;;;;;;;43.08;21.85;;;;;;;18.33;49.95;100305.31;4482440;31;33619;-76
2022/12/26 12:49:56;;;;;;;47.85;25.05;;;;;;;18.32;49.66;100291.31;4480431;31;34240;-75
2022/12/26 12:52:35;;;;;;;38.60;22.55;;;;;;;18.13;49.81;100287.41;4483947;31;33983;-76
2022/12/26 12:55:35;;;;;;;43.45;23.48;;;;;;;18.34;49.11;100288.75;4474757;31;34524;-76
2022/12/26 12:58:03;;;;;;;40.38;21.35;;;;;;;18.23;49.37;100283.25;4476886;31;34618;-76
2022/12/26 13:00:43;;;;;;;40.65;21.98;;;;;;;18.72;48.33;100283.41;4485588;31;34152;-76
2022/12/26 13:03:47;;;;;;;45.38;23.12;;;;;;;18.05;49.68;100283.75;4473078;31;34656;-75
2022/12/26 13:06:25;;;;;;;43.40;25.33;;;;;;;18.25;49.53;100281.56;4480929;31;34573;-76
2022/12/26 13:09:07;;;;;;;42.13;23.73;;;;;;;17.61;51.44;100283.56;4478253;31;33907;-76
2022/12/26 13:11:38;;;;;;;36.85;22.67;;;;;;;17.47;51.17;100278.88;4475871;31;31993;-75
2022/12/26 13:14:13;;;;;;;44.70;23.60;;;;;;;17.83;51.09;100278.00;4483494;31;33874;-78
2022/12/26 13:16:44;;;;;;;46.13;23.70;;;;;;;17.81;50.37;100279.69;4472243;31;33844;-78
2022/12/26 13:19:45;;;;;;;38.10;22.55;;;;;;;18.34;49.07;100279.12;4484458;31;34535;-76
2022/12/26 13:22:24;;;;;;;36.70;21.05;;;;;;;18.60;48.81;100279.69;4478829;31;34335;-76
2022/12/26 13:24:58;;;;;;;40.80;22.73;;;;;;;18.58;48.23;100276.12;4490456;31;34736;-77
2022/12/26 13:27:30;;;;;;;37.15;21.87;;;;;;;18.38;48.93;100282.72;4481972;31;33669;-76
2022/12/26 13:29:58;;;;;;;44.70;22.42;;;;;;;18.45;48.59;100282.00;4478671;31;33853;-76
2022/12/26 13:32:26;;;;;;;38.15;22.35;;;;;;;18.85;47.48;100280.16;4488084;31;33655;-76
2022/12/26 13:34:56;;;;;;;38.60;21.08;;;;;;;18.90;46.94;100281.13;4484202;31;34437;-77
2022/12/26 13:37:36;;;;;;;38.63;20.67;;;;;;;18.08;49.11;100283.84;4486885;31;34168;-77
2022/12/26 13:40:09;;;;;;;38.67;19.62;;;;;;;17.80;49.87;100293.63;4471749;31;32953;-77
2022/12/26 13:45:47;;;;;;;44.20;23.52;;;;;;;17.96;49.48;100286.16;4457877;31;33551;-76
2022/12/26 13:48:15;;;;;;;47.20;26.92;;;;;;;18.04;48.96;100292.44;4484495;31;32574;-80